Time;durP1;ratioP1;P1;durP2;ratioP2;P2;SDS_P1;SDS_P2;PMS_P1;PMS_P2;Temp;Humidity;BMP_temperature;BMP_pressure;BME280_temperature;BME280_humidity;BME280_pressure;Samples;Min_cycle;Max_cycle;Signal;HPM_P1;HPM_P2
2024/02/22 00:00:23;;;;;;;;;;;;;;;;;;5073303;28;20261;-72
2024/02/22 00:02:49;;;;;;;;;;;;;;;;;;5073682;28;19931;-72
2024/02/22 00:05:15;;;;;;;;;;;;;;;;;;5073616;28;19955;-72
2024/02/22 00:07:41;;;;;;;;;;;;;;;;;;5072022;28;19908;-72
2024/02/22 00:10:08;;;;;;;;;;;;;;;;;;5073549;28;19909;-72
2024/02/22 00:12:38;;;;;;;;;;;;;;;;;;5074506;28;19923;-72
2024/02/22 00:15:03;;;;;;;;;;;;;;;;;;5077108;28;19909;-72
2024/02/22 00:17:29;;;;;;;;;;;;;;;;;;5077494;28;19912;-72
2024/02/22 00:19:55;;;;;;;;;;;;;;;;;;5077093;28;19912;-72
2024/02/22 00:22:21;;;;;;;;;;;;;;;;;;5077391;28;19912;-72
2024/02/22 00:24:48;;;;;;;;;;;;;;;;;;5077349;28;20006;-72
2024/02/22 00:27:13;;;;;;;;;;;;;;;;;;5075652;28;20364;-72
2024/02/22 00:29:39;;;;;;;;;;;;;;;;;;5077218;28;20341;-72
2024/02/22 00:32:05;;;;;;;;;;;;;;;;;;5075836;28;20312;-72
2024/02/22 00:34:31;;;;;;;;;;;;;;;;;;5076799;28;20262;-72
2024/02/22 00:36:57;;;;;;;;;;;;;;;;;;5075812;28;19908;-72
2024/02/22 00:39:23;;;;;;;;;;;;;;;;;;5075793;28;20011;-72
2024/02/22 00:41:49;;;;;;;;;;;;;;;;;;5076658;28;19909;-72
2024/02/22 00:44:15;;;;;;;;;;;;;;;;;;5076984;28;19948;-72
2024/02/22 00:46:41;;;;;;;;;;;;;;;;;;5077238;28;19916;-72
2024/02/22 00:49:07;;;;;;;;;;;;;;;;;;5076489;28;19927;-72
2024/02/22 00:51:33;;;;;;;;;;;;;;;;;;5076826;28;20356;-72
2024/02/22 00:53:59;;;;;;;;;;;;;;;;;;5076862;28;20360;-72
2024/02/22 00:56:25;;;;;;;;;;;;;;;;;;5076357;28;20372;-72
2024/02/22 00:58:51;;;;;;;;;;;;;;;;;;5076982;28;19908;-72
2024/02/22 01:01:17;;;;;;;;;;;;;;;;;;5076649;28;19913;-72
2024/02/22 01:03:43;;;;;;;;;;;;;;;;;;5076203;28;19908;-72
2024/02/22 01:06:11;;;;;;;;;;;;;;;;;;5076619;28;20003;-72
2024/02/22 01:08:37;;;;;;;;;;;;;;;;;;5076780;28;19908;-72
2024/02/22 01:11:03;;;;;;;;;;;;;;;;;;5076020;28;20019;-72
2024/02/22 01:13:29;;;;;;;;;;;;;;;;;;5076531;28;19923;-72
2024/02/22 01:15:55;;;;;;;;;;;;;;;;;;5076529;28;20372;-72
2024/02/22 01:18:21;;;;;;;;;;;;;;;;;;5076003;28;20048;-72
2024/02/22 01:20:47;;;;;;;;;;;;;;;;;;5076323;28;19951;-71
2024/02/22 01:23:13;;;;;;;;;;;;;;;;;;5075519;28;19954;-72
2024/02/22 01:25:39;;;;;;;;;;;;;;;;;;5076253;28;19908;-72
2024/02/22 01:28:06;;;;;;;;;;;;;;;;;;5076340;28;19920;-72
2024/02/22 01:30:32;;;;;;;;;;;;;;;;;;5075688;28;20388;-72
2024/02/22 01:32:59;;;;;;;;;;;;;;;;;;5076118;28;19913;-72
2024/02/22 01:35:26;;;;;;;;;;;;;;;;;;5076349;28;20097;-72
2024/02/22 01:37:52;;;;;;;;;;;;;;;;;;5075689;28;19912;-72
2024/02/22 01:40:18;;;;;;;;;;;;;;;;;;5075930;28;19908;-70
2024/02/22 01:42:44;;;;;;;;;;;;;;;;;;5076019;28;19909;-71
2024/02/22 01:45:10;;;;;;;;;;;;;;;;;;5074125;28;19909;-71
2024/02/22 01:47:36;;;;;;;;;;;;;;;;;;5076129;28;19919;-71
2024/02/22 01:50:03;;;;;;;;;;;;;;;;;;5076116;28;19908;-71
2024/02/22 01:52:29;;;;;;;;;;;;;;;;;;5075105;28;19928;-71
2024/02/22 01:54:55;;;;;;;;;;;;;;;;;;5075663;28;19938;-71
2024/02/22 01:57:21;;;;;;;;;;;;;;;;;;5075644;28;20015;-71
2024/02/22 01:59:47;;;;;;;;;;;;;;;;;;5075279;28;19915;-71
2024/02/22 02:02:13;;;;;;;;;;;;;;;;;;5075606;28;19908;-71
2024/02/22 02:04:39;;;;;;;;;;;;;;;;;;5075399;28;19931;-71
2024/02/22 02:07:05;;;;;;;;;;;;;;;;;;5075009;28;19912;-71
2024/02/22 02:09:31;;;;;;;;;;;;;;;;;;5074114;28;19961;-71
2024/02/22 02:11:57;;;;;;;;;;;;;;;;;;5075252;28;19916;-71
2024/02/22 02:14:23;;;;;;;;;;;;;;;;;;5074966;28;19909;-71
2024/02/22 02:16:49;;;;;;;;;;;;;;;;;;5073964;28;19908;-71
2024/02/22 02:19:14;;;;;;;;;;;;;;;;;;5075205;28;19918;-70
2024/02/22 02:21:40;;;;;;;;;;;;;;;;;;5074844;28;19915;-70
2024/02/22 02:24:06;;;;;;;;;;;;;;;;;;5075051;28;19908;-69
2024/02/22 02:26:32;;;;;;;;;;;;;;;;;;5074607;28;19915;-71
2024/02/22 02:28:58;;;;;;;;;;;;;;;;;;5075543;28;19908;-72
2024/02/22 02:31:24;;;;;;;;;;;;;;;;;;5074845;28;19916;-72
2024/02/22 02:33:50;;;;;;;;;;;;;;;;;;5074563;28;20497;-72
2024/02/22 02:36:16;;;;;;;;;;;;;;;;;;5074043;28;19908;-73
2024/02/22 02:38:42;;;;;;;;;;;;;;;;;;5074834;28;19959;-71
2024/02/22 02:41:08;;;;;;;;;;;;;;;;;;5074420;28;20490;-71
2024/02/22 02:43:34;;;;;;;;;;;;;;;;;;5074707;28;20273;-71
2024/02/22 02:46:00;;;;;;;;;;;;;;;;;;5074650;28;19915;-71
2024/02/22 02:48:26;;;;;;;;;;;;;;;;;;5074175;28;19966;-71
2024/02/22 02:50:52;;;;;;;;;;;;;;;;;;5074270;28;19920;-72
2024/02/22 02:53:18;;;;;;;;;;;;;;;;;;5074608;28;19917;-71
2024/02/22 02:55:44;;;;;;;;;;;;;;;;;;5074266;28;20283;-72
2024/02/22 02:58:10;;;;;;;;;;;;;;;;;;5074648;28;20000;-71
2024/02/22 03:00:36;;;;;;;;;;;;;;;;;;5073380;28;19916;-71
2024/02/22 03:03:02;;;;;;;;;;;;;;;;;;5073032;28;20376;-73
2024/02/22 03:05:28;;;;;;;;;;;;;;;;;;5074518;28;19919;-72
2024/02/22 03:07:54;;;;;;;;;;;;;;;;;;5074412;28;19964;-71
2024/02/22 03:10:20;;;;;;;;;;;;;;;;;;5073861;28;19916;-72
2024/02/22 03:12:46;;;;;;;;;;;;;;;;;;5074112;28;19916;-71
2024/02/22 03:15:13;;;;;;;;;;;;;;;;;;5074160;28;19909;-72
2024/02/22 03:17:39;;;;;;;;;;;;;;;;;;5073708;28;20005;-71
2024/02/22 03:20:10;;;;;;;;;;;;;;;;;;5074212;28;19951;-71
2024/02/22 03:22:35;;;;;;;;;;;;;;;;;;5074396;28;20030;-71
2024/02/22 03:25:01;;;;;;;;;;;;;;;;;;5073613;28;19940;-71
2024/02/22 03:27:27;;;;;;;;;;;;;;;;;;5073996;28;19912;-72
2024/02/22 03:29:53;;;;;;;;;;;;;;;;;;5073522;28;19919;-72
2024/02/22 03:32:19;;;;;;;;;;;;;;;;;;5073932;28;19917;-72
2024/02/22 03:34:45;;;;;;;;;;;;;;;;;;5072631;28;19958;-72
2024/02/22 03:37:12;;;;;;;;;;;;;;;;;;5073448;28;20022;-72
2024/02/22 03:39:41;;;;;;;;;;;;;;;;;;5072614;28;20368;-72
2024/02/22 03:42:08;;;;;;;;;;;;;;;;;;5074055;28;19912;-72
2024/02/22 03:44:34;;;;;;;;;;;;;;;;;;5073373;28;20007;-72
2024/02/22 03:47:00;;;;;;;;;;;;;;;;;;5073606;28;19970;-72
2024/02/22 03:49:26;;;;;;;;;;;;;;;;;;5073754;28;19915;-72
2024/02/22 03:51:52;;;;;;;;;;;;;;;;;;5073001;28;19939;-72
2024/02/22 03:54:18;;;;;;;;;;;;;;;;;;5073957;28;19909;-72
2024/02/22 03:56:44;;;;;;;;;;;;;;;;;;5073693;28;19932;-72
2024/02/22 03:59:10;;;;;;;;;;;;;;;;;;5073359;28;19909;-72
2024/02/22 04:01:36;;;;;;;;;;;;;;;;;;5073622;28;19954;-72
2024/02/22 04:04:03;;;;;;;;;;;;;;;;;;5073706;28;19909;-72
2024/02/22 04:06:29;;;;;;;;;;;;;;;;;;5073229;28;19909;-72
2024/02/22 04:08:57;;;;;;;;;;;;;;;;;;5072307;28;19912;-72
2024/02/22 04:11:23;;;;;;;;;;;;;;;;;;5073524;28;19965;-72
2024/02/22 04:13:49;;;;;;;;;;;;;;;;;;5073181;28;20038;-72
2024/02/22 04:16:15;;;;;;;;;;;;;;;;;;5073733;28;19963;-72
2024/02/22 04:18:41;;;;;;;;;;;;;;;;;;5073512;28;19915;-72
2024/02/22 04:21:07;;;;;;;;;;;;;;;;;;5073032;28;19912;-72
2024/02/22 04:23:33;;;;;;;;;;;;;;;;;;5073527;28;19963;-72
2024/02/22 04:25:59;;;;;;;;;;;;;;;;;;5073405;28;20249;-72
2024/02/22 04:28:25;;;;;;;;;;;;;;;;;;5073138;28;19912;-72
2024/02/22 04:30:51;;;;;;;;;;;;;;;;;;5073408;28;19908;-72
2024/02/22 04:33:17;;;;;;;;;;;;;;;;;;5072982;28;20299;-72
2024/02/22 04:35:44;;;;;;;;;;;;;;;;;;5073315;28;19908;-72
2024/02/22 04:38:10;;;;;;;;;;;;;;;;;;5073343;28;19970;-73
2024/02/22 04:40:36;;;;;;;;;;;;;;;;;;5072865;28;20364;-72
2024/02/22 04:43:02;;;;;;;;;;;;;;;;;;5073462;28;20256;-72
2024/02/22 04:45:28;;;;;;;;;;;;;;;;;;5073416;28;19909;-72
2024/02/22 04:47:54;;;;;;;;;;;;;;;;;;5071507;28;19908;-72
2024/02/22 04:50:20;;;;;;;;;;;;;;;;;;5073035;28;19962;-71
2024/02/22 04:52:46;;;;;;;;;;;;;;;;;;5071879;28;20363;-71
2024/02/22 04:55:12;;;;;;;;;;;;;;;;;;5072933;28;20261;-72
2024/02/22 04:57:38;;;;;;;;;;;;;;;;;;5073114;28;19995;-72
2024/02/22 05:00:05;;;;;;;;;;;;;;;;;;5076130;28;19971;-72
2024/02/22 05:02:31;;;;;;;;;;;;;;;;;;5076293;28;19908;-72
2024/02/22 05:04:57;;;;;;;;;;;;;;;;;;5076607;28;19915;-72
2024/02/22 05:07:23;;;;;;;;;;;;;;;;;;5076616;28;19908;-71
2024/02/22 05:09:49;;;;;;;;;;;;;;;;;;5076136;28;19909;-71
2024/02/22 05:12:15;;;;;;;;;;;;;;;;;;5075157;28;19920;-72
2024/02/22 05:14:43;;;;;;;;;;;;;;;;;;5076714;28;19928;-72
2024/02/22 05:17:09;;;;;;;;;;;;;;;;;;5076002;28;19916;-72
2024/02/22 05:19:35;;;;;;;;;;;;;;;;;;5076479;28;20319;-71
2024/02/22 05:22:01;;;;;;;;;;;;;;;;;;5076261;28;20285;-71
2024/02/22 05:24:29;;;;;;;;;;;;;;;;;;5074580;28;19935;-71
2024/02/22 05:26:55;;;;;;;;;;;;;;;;;;5076167;28;19913;-72
2024/02/22 05:29:21;;;;;;;;;;;;;;;;;;5076351;28;20322;-72
2024/02/22 05:31:47;;;;;;;;;;;;;;;;;;5076057;28;20326;-71
2024/02/22 05:34:13;;;;;;;;;;;;;;;;;;5075996;28;19915;-71
2024/02/22 05:36:39;;;;;;;;;;;;;;;;;;5072652;28;19915;-71
2024/02/22 05:39:07;;;;;;;;;;;;;;;;;;5073896;28;19908;-72
2024/02/22 05:41:33;;;;;;;;;;;;;;;;;;5076092;28;19999;-71
2024/02/22 05:43:58;;;;;;;;;;;;;;;;;;5075493;28;20003;-72
2024/02/22 05:46:24;;;;;;;;;;;;;;;;;;5075834;28;19908;-71
2024/02/22 05:48:50;;;;;;;;;;;;;;;;;;5075994;28;19909;-71
2024/02/22 05:51:16;;;;;;;;;;;;;;;;;;5073813;28;20010;-71
2024/02/22 05:53:42;;;;;;;;;;;;;;;;;;5076333;28;20353;-71
2024/02/22 05:56:08;;;;;;;;;;;;;;;;;;5075648;28;19916;-72
2024/02/22 05:58:34;;;;;;;;;;;;;;;;;;5075353;28;20368;-71
2024/02/22 06:01:00;;;;;;;;;;;;;;;;;;5075558;28;19981;-72
2024/02/22 06:03:26;;;;;;;;;;;;;;;;;;5075956;28;19912;-72
2024/02/22 06:05:53;;;;;;;;;;;;;;;;;;5075317;28;19915;-72
2024/02/22 06:08:18;;;;;;;;;;;;;;;;;;5075487;28;19960;-71
2024/02/22 06:10:44;;;;;;;;;;;;;;;;;;5074024;28;19911;-70
2024/02/22 06:13:10;;;;;;;;;;;;;;;;;;5073563;28;20386;-71
2024/02/22 06:15:36;;;;;;;;;;;;;;;;;;5074953;28;20283;-72
2024/02/22 06:18:02;;;;;;;;;;;;;;;;;;5074938;28;20002;-71
2024/02/22 06:20:31;;;;;;;;;;;;;;;;;;5074745;28;19936;-71
2024/02/22 06:22:59;;;;;;;;;;;;;;;;;;5073653;28;19909;-70
2024/02/22 06:25:24;;;;;;;;;;;;;;;;;;5073373;28;19916;-71
2024/02/22 06:27:51;;;;;;;;;;;;;;;;;;5055114;28;20000;-69
2024/02/22 06:30:17;;;;;;;;;;;;;;;;;;5059120;28;20377;-70
2024/02/22 06:32:43;;;;;;;;;;;;;;;;;;5083165;28;19964;-69
2024/02/22 06:35:09;;;;;;;;;;;;;;;;;;5067434;28;19960;-67
2024/02/22 06:37:35;;;;;;;;;;;;;;;;;;5073279;28;19916;-67
2024/02/22 06:40:02;;;;;;;;;;;;;;;;;;5070259;28;19939;-67
2024/02/22 06:42:28;;;;;;;;;;;;;;;;;;5071514;28;19923;-67
2024/02/22 06:44:55;;;;;;;;;;;;;;;;;;5073414;28;19908;-68
2024/02/22 06:47:21;;;;;;;;;;;;;;;;;;5072623;28;19925;-66
2024/02/22 06:49:47;;;;;;;;;;;;;;;;;;5061203;28;20455;-65
2024/02/22 06:52:15;;;;;;;;;;;;;;;;;;5069588;28;19921;-66
2024/02/22 06:54:41;;;;;;;;;;;;;;;;;;5064305;28;19920;-67
2024/02/22 06:57:07;;;;;;;;;;;;;;;;;;5073516;28;20445;-68
2024/02/22 06:59:33;;;;;;;;;;;;;;;;;;5068882;28;20023;-68
2024/02/22 07:01:59;;;;;;;;;;;;;;;;;;5057998;28;19913;-68
2024/02/22 07:04:26;;;;;;;;;;;;;;;;;;5073689;28;19919;-67
2024/02/22 07:06:53;;;;;;;;;;;;;;;;;;5067521;28;20336;-67
2024/02/22 07:09:19;;;;;;;;;;;;;;;;;;5073131;28;19951;-69
2024/02/22 07:11:45;;;;;;;;;;;;;;;;;;5069573;28;19941;-67
2024/02/22 07:14:11;;;;;;;;;;;;;;;;;;5053037;28;19920;-69
2024/02/22 07:16:37;;;;;;;;;;;;;;;;;;5072280;28;19909;-69
2024/02/22 07:19:03;;;;;;;;;;;;;;;;;;5073031;28;19916;-68
2024/02/22 07:21:29;;;;;;;;;;;;;;;;;;5070766;28;20441;-68
2024/02/22 07:23:55;;;;;;;;;;;;;;;;;;5068674;28;19921;-69
2024/02/22 07:26:21;;;;;;;;;;;;;;;;;;5066876;28;19915;-70
2024/02/22 07:28:47;;;;;;;;;;;;;;;;;;5069724;28;19912;-67
2024/02/22 07:31:13;;;;;;;;;;;;;;;;;;5072599;28;20435;-70
2024/02/22 07:33:39;;;;;;;;;;;;;;;;;;5073242;28;20292;-68
2024/02/22 07:36:05;;;;;;;;;;;;;;;;;;5072278;28;20284;-68
2024/02/22 07:38:31;;;;;;;;;;;;;;;;;;5072867;28;19913;-68
2024/02/22 07:40:57;;;;;;;;;;;;;;;;;;5073002;28;20334;-69
2024/02/22 07:43:25;;;;;;;;;;;;;;;;;;5072372;28;20353;-67
2024/02/22 07:45:52;;;;;;;;;;;;;;;;;;5071130;28;19955;-67
2024/02/22 07:48:18;;;;;;;;;;;;;;;;;;5072679;28;19908;-68
2024/02/22 07:50:44;;;;;;;;;;;;;;;;;;5067850;28;19917;-69
2024/02/22 07:53:10;;;;;;;;;;;;;;;;;;5068888;28;19952;-67
2024/02/22 07:55:38;;;;;;;;;;;;;;;;;;5072707;28;19915;-69
2024/02/22 07:58:04;;;;;;;;;;;;;;;;;;5070337;28;19912;-68
2024/02/22 08:00:30;;;;;;;;;;;;;;;;;;5070537;28;19915;-69
2024/02/22 08:02:56;;;;;;;;;;;;;;;;;;5069070;28;19913;-69
2024/02/22 08:05:22;;;;;;;;;;;;;;;;;;5069610;28;19917;-68
2024/02/22 08:07:48;;;;;;;;;;;;;;;;;;5070315;28;19975;-68
2024/02/22 08:10:14;;;;;;;;;;;;;;;;;;5067207;28;19912;-71
2024/02/22 08:12:40;;;;;;;;;;;;;;;;;;5068744;28;19950;-68
2024/02/22 08:15:08;;;;;;;;;;;;;;;;;;5063684;28;19920;-68
2024/02/22 08:17:36;;;;;;;;;;;;;;;;;;5049308;28;19912;-68
2024/02/22 08:20:02;;;;;;;;;;;;;;;;;;5063653;28;19919;-68
2024/02/22 08:22:28;;;;;;;;;;;;;;;;;;5052638;28;19908;-69
2024/02/22 08:24:54;;;;;;;;;;;;;;;;;;5070506;28;19921;-70
2024/02/22 08:27:20;;;;;;;;;;;;;;;;;;5068274;28;19916;-67
2024/02/22 08:29:50;;;;;;;;;;;;;;;;;;5070553;28;19909;-68
2024/02/22 08:32:16;;;;;;;;;;;;;;;;;;5070230;28;19916;-68
2024/02/22 08:34:42;;;;;;;;;;;;;;;;;;5073060;28;19935;-70
2024/02/22 08:37:08;;;;;;;;;;;;;;;;;;5074346;28;19908;-69
2024/02/22 08:39:35;;;;;;;;;;;;;;;;;;5072824;28;19920;-70
2024/02/22 08:42:03;;;;;;;;;;;;;;;;;;5064958;28;19913;-69
2024/02/22 08:44:29;;;;;;;;;;;;;;;;;;5060895;28;20277;-69
2024/02/22 08:46:55;;;;;;;;;;;;;;;;;;5053143;28;19917;-69
2024/02/22 08:49:21;;;;;;;;;;;;;;;;;;5052290;28;19940;-69
2024/02/22 08:51:47;;;;;;;;;;;;;;;;;;5074667;28;19943;-70
2024/02/22 08:54:13;;;;;;;;;;;;;;;;;;5075249;28;20345;-69
2024/02/22 08:56:39;;;;;;;;;;;;;;;;;;5075620;28;20281;-68
2024/02/22 08:59:05;;;;;;;;;;;;;;;;;;5074447;28;19981;-67
2024/02/22 09:01:34;;;;;;;;;;;;;;;;;;5067838;28;19917;-67
2024/02/22 09:04:00;;;;;;;;;;;;;;;;;;5070188;28;20673;-68
2024/02/22 09:06:25;;;;;;;;;;;;;;;;;;5074796;28;19926;-68
2024/02/22 09:08:53;;;;;;;;;;;;;;;;;;5069378;28;20288;-67
2024/02/22 09:11:19;;;;;;;;;;;;;;;;;;5073048;28;20383;-68
2024/02/22 09:13:45;;;;;;;;;;;;;;;;;;5060270;28;19921;-68
2024/02/22 09:16:11;;;;;;;;;;;;;;;;;;5070531;28;20388;-68
2024/02/22 09:18:37;;;;;;;;;;;;;;;;;;5072574;28;19912;-68
2024/02/22 09:21:04;;;;;;;;;;;;;;;;;;5066901;28;19941;-69
2024/02/22 09:23:30;;;;;;;;;;;;;;;;;;5050614;28;19999;-68
2024/02/22 09:25:56;;;;;;;;;;;;;;;;;;5100488;28;20357;-69
2024/02/22 09:28:22;;;;;;;;;;;;;;;;;;5071372;28;20003;-68
2024/02/22 09:30:48;;;;;;;;;;;;;;;;;;5071693;28;20371;-68
2024/02/22 09:33:15;;;;;;;;;;;;;;;;;;5070068;28;19917;-68
2024/02/22 09:35:41;;;;;;;;;;;;;;;;;;5068351;28;20578;-68
2024/02/22 09:38:07;;;;;;;;;;;;;;;;;;5070243;28;19912;-68
2024/02/22 09:40:33;;;;;;;;;;;;;;;;;;5067220;28;19915;-68
2024/02/22 09:42:59;;;;;;;;;;;;;;;;;;5069542;28;19970;-69
2024/02/22 09:45:25;;;;;;;;;;;;;;;;;;5065512;28;19930;-69
2024/02/22 09:47:51;;;;;;;;;;;;;;;;;;5068589;28;19916;-70
2024/02/22 09:50:19;;;;;;;;;;;;;;;;;;5071894;28;19912;-70
2024/02/22 09:52:46;;;;;;;;;;;;;;;;;;5064117;28;19929;-69
2024/02/22 09:55:12;;;;;;;;;;;;;;;;;;5070888;28;19913;-71
2024/02/22 09:57:38;;;;;;;;;;;;;;;;;;5073666;28;20331;-70
2024/02/22 10:00:06;;;;;;;;;;;;;;;;;;5071927;28;19999;-69
2024/02/22 10:02:32;;;;;;;;;;;;;;;;;;5073201;28;19919;-70
2024/02/22 10:05:00;;;;;;;;;;;;;;;;;;5070662;28;19920;-68
2024/02/22 10:07:39;;;;;;;;;;;;;;;;;;5095772;27;19916;-72
2024/02/22 10:16:38;;;;;;;;;;;;;;;;;;5086269;27;19916;-70
2024/02/22 10:19:05;;;;;;;;;;;;;;;;;;5085126;28;19916;-70
2024/02/22 10:21:31;;;;;;;;;;;;;;;;;;5088094;28;20428;-70
2024/02/22 10:23:58;;;;;;;;;;;;;;;;;;5094599;28;19965;-70
2024/02/22 10:26:24;;;;;;;;;;;;;;;;;;5094192;28;19908;-71
2024/02/22 10:31:38;;;;;;;;;;;;;;;;;;5099546;27;20334;-70
2024/02/22 10:36:22;;;;;;;;;;;;;;;;;;5144382;27;19919;-72
2024/02/22 10:38:48;;;;;;;;;;;;;;;;;;5086539;28;20106;-72
2024/02/22 10:41:14;;;;;;;;;;;;;;;;;;5107169;28;20018;-70
2024/02/22 10:43:41;;;;;;;;;;;;;;;;;;5107795;28;19909;-70
2024/02/22 10:46:07;;;;;;;;;;;;;;;;;;5108590;28;20283;-71
2024/02/22 10:48:34;;;;;;;;;;;;;;;;;;5091103;28;19912;-70
2024/02/22 10:53:10;;;;;;;;;;;;;;;;;;5134061;27;19916;-70
2024/02/22 10:55:36;;;;;;;;;;;;;;;;;;5111278;28;19916;-70
2024/02/22 10:58:05;;;;;;;;;;;;;;;;;;5129354;28;19914;-69
2024/02/22 11:00:32;;;;;;;;;;;;;;;;;;5126963;28;19988;-70
2024/02/22 11:02:58;;;;;;;;;;;;;;;;;;5108896;28;19908;-70
2024/02/22 11:05:24;;;;;;;;;;;;;;;;;;5108152;28;20437;-70
2024/02/22 11:08:22;;;;;;;;;;;;;;;;;;5076890;27;20432;-70
2024/02/22 11:10:48;;;;;;;;;;;;;;;;;;5084232;28;19912;-71
2024/02/22 11:13:53;;;;;;;;;;;;;;;;;;5087674;27;19912;-70
2024/02/22 11:17:47;;;;;;;;;;;;;;;;;;5073832;27;2121349;-69
2024/02/22 11:20:13;;;;;;;;;;;;;;;;;;5148424;27;20261;-70
2024/02/22 11:23:59;;;;;;;;;;;;;;;;;;5089075;27;19916;-69
2024/02/22 11:26:25;;;;;;;;;;;;;;;;;;5084476;28;19916;-70
2024/02/22 11:34:22;;;;;;;;;;;;;;;;;;5090093;27;2262849;-70
2024/02/22 11:37:42;;;;;;;;;;;;;;;;;;5109702;27;20014;-69
2024/02/22 11:44:47;;;;;;;;;;;;;;;;;;4943792;27;5203163;-76
2024/02/22 11:47:13;;;;;;;;;;;;;;;;;;5130104;28;19912;-74
2024/02/22 11:50:52;;;;;;;;;;;;;;;;;;5110783;27;20298;-69
2024/02/22 11:53:18;;;;;;;;;;;;;;;;;;5130341;28;20424;-70
2024/02/22 11:55:44;;;;;;;;;;;;;;;;;;5130016;28;19912;-70
2024/02/22 11:58:10;;;;;;;;;;;;;;;;;;5125126;28;19963;-69
2024/02/22 12:01:27;;;;;;;;;;;;;;;;;;5069289;28;19920;-69
2024/02/22 12:03:53;;;;;;;;;;;;;;;;;;5067669;28;19920;-68
2024/02/22 12:06:19;;;;;;;;;;;;;;;;;;5069022;28;19908;-69
2024/02/22 12:10:57;;;;;;;;;;;;;;;;;;5087972;27;19917;-68
2024/02/22 12:14:05;;;;;;;;;;;;;;;;;;5083782;27;19916;-68
2024/02/22 12:16:31;;;;;;;;;;;;;;;;;;5086622;28;20380;-68
2024/02/22 12:18:57;;;;;;;;;;;;;;;;;;5082845;28;20383;-69
2024/02/22 12:21:26;;;;;;;;;;;;;;;;;;5085525;28;19913;-69
2024/02/22 12:28:59;;;;;;;;;;;;;;;;;;5087926;27;19919;-69
2024/02/22 12:35:44;;;;;;;;;;;;;;;;;;5131632;28;20004;-71
2024/02/22 12:38:10;;;;;;;;;;;;;;;;;;5131154;28;20464;-70
2024/02/22 12:40:35;;;;;;;;;;;;;;;;;;5129514;28;19959;-70
2024/02/22 12:43:02;;;;;;;;;;;;;;;;;;5130587;28;19915;-70
2024/02/22 12:45:28;;;;;;;;;;;;;;;;;;5127663;28;19908;-70
2024/02/22 12:50:33;;;;;;;;;;;;;;;;;;5171944;27;20508;-73
2024/02/22 12:52:59;;;;;;;;;;;;;;;;;;5171566;27;19950;-73
2024/02/22 12:55:25;;;;;;;;;;;;;;;;;;5172480;27;19907;-76
2024/02/22 12:59:22;;;;;;;;;;;;;;;;;;5087277;27;19920;-75
2024/02/22 13:01:48;;;;;;;;;;;;;;;;;;5087169;28;19912;-74
2024/02/22 13:04:14;;;;;;;;;;;;;;;;;;5087432;28;19913;-73
2024/02/22 13:06:40;;;;;;;;;;;;;;;;;;5089281;28;20432;-73
2024/02/22 13:09:06;;;;;;;;;;;;;;;;;;5088598;28;19908;-73
2024/02/22 13:13:29;;;;;;;;;;;;;;;;;;5109340;27;19920;-73
2024/02/22 13:15:55;;;;;;;;;;;;;;;;;;5106884;28;19916;-72
2024/02/22 13:18:21;;;;;;;;;;;;;;;;;;5107389;28;19908;-72
2024/02/22 13:20:47;;;;;;;;;;;;;;;;;;5107277;28;19909;-72
2024/02/22 13:23:13;;;;;;;;;;;;;;;;;;5108513;28;19911;-73
2024/02/22 13:25:39;;;;;;;;;;;;;;;;;;5104746;28;20379;-68
2024/02/22 13:28:05;;;;;;;;;;;;;;;;;;5109764;28;20322;-69
2024/02/22 13:30:31;;;;;;;;;;;;;;;;;;5107789;28;19970;-70
2024/02/22 13:36:34;;;;;;;;;;;;;;;;;;5088884;27;20341;-70
2024/02/22 13:39:00;;;;;;;;;;;;;;;;;;5089261;28;19912;-69
2024/02/22 13:41:26;;;;;;;;;;;;;;;;;;5090013;28;19909;-70
2024/02/22 13:43:52;;;;;;;;;;;;;;;;;;5089662;28;19959;-69
2024/02/22 13:46:18;;;;;;;;;;;;;;;;;;5090745;28;20392;-69
2024/02/22 13:48:44;;;;;;;;;;;;;;;;;;5090295;28;19934;-67
2024/02/22 13:52:44;;;;;;;;;;;;;;;;;;5089306;27;20292;-69
2024/02/22 13:55:11;;;;;;;;;;;;;;;;;;5090041;28;19917;-68
2024/02/22 13:57:37;;;;;;;;;;;;;;;;;;5088223;28;20383;-70
2024/02/22 14:00:05;;;;;;;;;;;;;;;;;;5088679;28;19915;-68
2024/02/22 14:02:31;;;;;;;;;;;;;;;;;;5089148;28;19915;-71
2024/02/22 14:04:57;;;;;;;;;;;;;;;;;;5089321;28;20118;-71
2024/02/22 14:07:23;;;;;;;;;;;;;;;;;;5087760;28;19908;-72
2024/02/22 14:09:49;;;;;;;;;;;;;;;;;;5087402;28;19909;-71
2024/02/22 14:12:16;;;;;;;;;;;;;;;;;;5089035;28;19958;-71
2024/02/22 14:14:42;;;;;;;;;;;;;;;;;;5089475;28;19920;-71
2024/02/22 14:17:10;;;;;;;;;;;;;;;;;;5087770;28;20003;-71
2024/02/22 14:19:36;;;;;;;;;;;;;;;;;;5089408;28;19908;-71
2024/02/22 14:22:02;;;;;;;;;;;;;;;;;;5090384;28;19908;-71
2024/02/22 14:24:28;;;;;;;;;;;;;;;;;;5088976;28;19915;-71
2024/02/22 14:26:54;;;;;;;;;;;;;;;;;;5090526;28;19912;-70
2024/02/22 14:29:20;;;;;;;;;;;;;;;;;;5090453;28;20261;-70
2024/02/22 14:32:50;;;;;;;;;;;;;;;;;;5090776;27;19919;-71
2024/02/22 14:35:17;;;;;;;;;;;;;;;;;;5091079;28;20007;-71
2024/02/22 14:37:43;;;;;;;;;;;;;;;;;;5091190;28;19940;-71
2024/02/22 14:40:11;;;;;;;;;;;;;;;;;;5090667;28;19950;-71
2024/02/22 14:42:37;;;;;;;;;;;;;;;;;;5090059;28;19958;-71
2024/02/22 14:45:03;;;;;;;;;;;;;;;;;;5090388;28;19953;-71
2024/02/22 14:47:30;;;;;;;;;;;;;;;;;;5089871;28;19961;-71
2024/02/22 14:49:56;;;;;;;;;;;;;;;;;;5089491;28;19912;-70
2024/02/22 14:52:22;;;;;;;;;;;;;;;;;;5090376;28;20261;-71
2024/02/22 14:54:48;;;;;;;;;;;;;;;;;;5090615;28;19912;-70
2024/02/22 14:57:14;;;;;;;;;;;;;;;;;;5090620;28;19954;-71
2024/02/22 15:01:24;;;;;;;;;;;;;;;;;;5090788;28;19913;-70
2024/02/22 15:03:51;;;;;;;;;;;;;;;;;;5089746;28;19916;-70
2024/02/22 15:06:17;;;;;;;;;;;;;;;;;;5090634;28;19908;-70
2024/02/22 15:08:43;;;;;;;;;;;;;;;;;;5091049;28;19915;-70
2024/02/22 15:11:09;;;;;;;;;;;;;;;;;;5090026;28;20382;-70
2024/02/22 15:15:40;;;;;;;;;;;;;;;;;;5089095;27;19923;-71
2024/02/22 15:18:06;;;;;;;;;;;;;;;;;;5089189;28;19943;-71
2024/02/22 15:22:09;;;;;;;;;;;;;;;;;;5089904;27;19912;-71
2024/02/22 15:24:35;;;;;;;;;;;;;;;;;;5090495;28;19912;-71
2024/02/22 15:27:01;;;;;;;;;;;;;;;;;;5090793;28;19915;-70
2024/02/22 15:34:35;;;;;;;;;;;;;;;;;;5152404;27;19911;-69
2024/02/22 15:42:55;;;;;;;;;;;;;;;;;;5090962;27;19939;-71
2024/02/22 15:45:22;;;;;;;;;;;;;;;;;;5090916;28;20268;-71
2024/02/22 15:47:49;;;;;;;;;;;;;;;;;;5090857;28;19908;-73
2024/02/22 15:50:42;;;;;;;;;;;;;;;;;;5091182;27;20386;-71
2024/02/22 15:53:08;;;;;;;;;;;;;;;;;;5091023;28;19919;-71
2024/02/22 15:55:34;;;;;;;;;;;;;;;;;;5090426;28;20364;-71
2024/02/22 15:58:01;;;;;;;;;;;;;;;;;;5091136;28;19915;-72
2024/02/22 16:00:28;;;;;;;;;;;;;;;;;;5091243;28;19908;-73
2024/02/22 16:03:54;;;;;;;;;;;;;;;;;;5111562;27;19916;-72
2024/02/22 16:06:20;;;;;;;;;;;;;;;;;;5111732;28;20372;-71
2024/02/22 16:08:46;;;;;;;;;;;;;;;;;;5111767;28;19961;-72
2024/02/22 16:11:12;;;;;;;;;;;;;;;;;;5109868;28;19957;-72
2024/02/22 16:13:38;;;;;;;;;;;;;;;;;;5111509;28;20024;-72
2024/02/22 16:16:04;;;;;;;;;;;;;;;;;;5111430;28;19912;-72
2024/02/22 16:18:32;;;;;;;;;;;;;;;;;;5111110;28;19908;-73
2024/02/22 16:20:59;;;;;;;;;;;;;;;;;;5111665;28;20369;-70
2024/02/22 16:23:25;;;;;;;;;;;;;;;;;;5111622;28;19916;-71
2024/02/22 16:25:50;;;;;;;;;;;;;;;;;;5111731;28;19908;-71
2024/02/22 16:28:18;;;;;;;;;;;;;;;;;;5109986;28;19970;-71
2024/02/22 16:30:44;;;;;;;;;;;;;;;;;;5110902;28;20041;-71
2024/02/22 16:33:11;;;;;;;;;;;;;;;;;;5111164;28;19998;-71
2024/02/22 16:35:37;;;;;;;;;;;;;;;;;;5111124;28;19908;-71
2024/02/22 16:38:03;;;;;;;;;;;;;;;;;;5110793;28;20050;-71
2024/02/22 16:40:28;;;;;;;;;;;;;;;;;;5111129;28;19908;-70
2024/02/22 16:42:54;;;;;;;;;;;;;;;;;;5111008;28;20363;-71
2024/02/22 16:45:20;;;;;;;;;;;;;;;;;;5109270;28;19915;-71
2024/02/22 16:47:46;;;;;;;;;;;;;;;;;;5111065;28;19954;-71
2024/02/22 16:50:12;;;;;;;;;;;;;;;;;;5111182;28;19915;-72
2024/02/22 16:52:38;;;;;;;;;;;;;;;;;;5110383;28;20007;-71
2024/02/22 16:55:04;;;;;;;;;;;;;;;;;;5110799;28;19912;-71
2024/02/22 16:57:32;;;;;;;;;;;;;;;;;;5110859;28;20019;-71
2024/02/22 16:59:58;;;;;;;;;;;;;;;;;;5110341;28;19908;-71
2024/02/22 17:02:26;;;;;;;;;;;;;;;;;;5109093;28;19927;-71
2024/02/22 17:04:52;;;;;;;;;;;;;;;;;;5109239;28;19995;-71
2024/02/22 17:07:18;;;;;;;;;;;;;;;;;;5110179;28;19965;-71
2024/02/22 17:09:44;;;;;;;;;;;;;;;;;;5109207;28;19911;-71
2024/02/22 17:12:10;;;;;;;;;;;;;;;;;;5110483;28;19915;-71
2024/02/22 17:14:38;;;;;;;;;;;;;;;;;;5099706;28;20416;-71
2024/02/22 17:17:04;;;;;;;;;;;;;;;;;;5096751;28;19908;-72
2024/02/22 17:19:29;;;;;;;;;;;;;;;;;;5096695;28;20027;-72
2024/02/22 17:21:57;;;;;;;;;;;;;;;;;;5096233;28;19919;-71
2024/02/22 17:24:23;;;;;;;;;;;;;;;;;;5096676;28;19920;-71
2024/02/22 17:26:50;;;;;;;;;;;;;;;;;;5096207;28;20427;-72
2024/02/22 17:29:16;;;;;;;;;;;;;;;;;;5096894;28;19908;-71
2024/02/22 17:31:42;;;;;;;;;;;;;;;;;;5097152;28;20325;-71
2024/02/22 17:34:08;;;;;;;;;;;;;;;;;;5095995;28;19912;-71
2024/02/22 17:36:34;;;;;;;;;;;;;;;;;;5095097;28;19963;-71
2024/02/22 17:39:00;;;;;;;;;;;;;;;;;;5096429;28;19953;-71
2024/02/22 17:41:27;;;;;;;;;;;;;;;;;;5095857;28;19908;-71
2024/02/22 17:43:55;;;;;;;;;;;;;;;;;;5096668;28;19912;-72
2024/02/22 17:46:23;;;;;;;;;;;;;;;;;;5096276;28;19999;-72
2024/02/22 17:48:49;;;;;;;;;;;;;;;;;;5095884;28;19909;-72
2024/02/22 17:51:15;;;;;;;;;;;;;;;;;;5096170;28;19951;-71